createdAt,value
2023-01-19T00:01:08.809Z,11.78
2023-01-19T00:03:58.136Z,11.50
2023-01-19T00:06:40.451Z,11.45
2023-01-19T00:09:31.059Z,11.92
2023-01-19T00:12:14.394Z,11.79
2023-01-19T00:15:03.175Z,11.42
2023-01-19T00:17:45.476Z,11.83
2023-01-19T00:20:33.987Z,11.90
2023-01-19T00:23:16.425Z,11.63
2023-01-19T00:26:05.280Z,11.15
2023-01-19T00:28:47.407Z,11.16
2023-01-19T00:31:38.371Z,11.07
2023-01-19T00:34:21.414Z,10.68
2023-01-19T00:37:11.053Z,10.51
2023-01-19T00:39:53.376Z,10.73
2023-01-19T00:42:48.180Z,10.57
2023-01-19T00:45:32.470Z,10.45
2023-01-19T00:48:21.499Z,10.45
2023-01-19T00:51:03.387Z,10.36
2023-01-19T00:53:52.134Z,10.54
2023-01-19T00:56:34.563Z,10.29
2023-01-19T00:59:22.987Z,10.34
2023-01-19T01:02:06.482Z,10.47
2023-01-19T01:04:55.147Z,10.78
2023-01-19T01:07:53.128Z,10.70
2023-01-19T01:10:42.346Z,10.41
2023-01-19T01:13:26.321Z,10.25
2023-01-19T01:16:17.074Z,10.05
2023-01-19T01:18:59.451Z,10.04
2023-01-19T01:21:48.183Z,9.99
2023-01-19T01:24:31.412Z,10.02
2023-01-19T01:27:20.001Z,10.16
2023-01-19T01:30:02.357Z,10.08
2023-01-19T01:32:51.184Z,10.12
2023-01-19T01:35:42.060Z,9.84
2023-01-19T01:38:30.988Z,9.94
2023-01-19T01:41:21.832Z,10.01
2023-01-19T01:44:56.979Z,9.85
2023-01-19T01:47:53.417Z,9.84
2023-01-19T01:50:47.191Z,9.59
2023-01-19T01:53:45.016Z,9.66
2023-01-19T01:56:44.153Z,9.39
2023-01-19T01:59:41.600Z,9.44
2023-01-19T02:02:52.191Z,9.73
2023-01-19T02:05:42.488Z,9.38
2023-01-19T02:08:55.036Z,9.20
2023-01-19T02:12:04.121Z,9.09
2023-01-19T02:14:52.644Z,9.04
2023-01-19T02:17:35.130Z,9.28
2023-01-19T02:20:18.007Z,9.18
2023-01-19T02:23:10.146Z,9.42
2023-01-19T02:25:52.586Z,9.83
2023-01-19T02:28:43.104Z,9.36
2023-01-19T02:31:33.060Z,9.47
2023-01-19T02:34:26.148Z,9.31
2023-01-19T02:37:16.207Z,9.42
2023-01-19T02:40:09.409Z,9.39
2023-01-19T02:42:58.634Z,9.35
2023-01-19T02:45:41.627Z,9.40
2023-01-19T02:48:39.049Z,9.55
2023-01-19T02:51:26.396Z,9.80
2023-01-19T02:54:41.069Z,10.19
2023-01-19T02:58:11.014Z,10.47
2023-01-19T03:01:05.120Z,10.16
2023-01-19T03:04:02.190Z,10.11
2023-01-19T03:06:56.403Z,10.64
2023-01-19T03:10:08.118Z,10.79
2023-01-19T03:13:11.097Z,10.92
2023-01-19T03:16:07.904Z,11.19
2023-01-19T03:19:02.101Z,11.52
2023-01-19T03:21:50.216Z,11.65
2023-01-19T03:24:41.107Z,11.66
2023-01-19T03:27:34.333Z,12.13
2023-01-19T03:30:22.140Z,12.61
2023-01-19T03:33:10.487Z,13.43
2023-01-19T03:36:05.147Z,14.20
2023-01-19T03:38:56.438Z,15.04
2023-01-19T03:41:42.101Z,15.62
2023-01-19T03:44:27.129Z,15.84
2023-01-19T03:47:17.177Z,16.61
2023-01-19T03:50:03.590Z,16.83
2023-01-19T03:52:52.093Z,17.44
2023-01-19T03:55:42.445Z,17.73
2023-01-19T03:58:25.356Z,18.29
2023-01-19T04:01:07.340Z,18.32
2023-01-19T04:03:57.081Z,18.87
2023-01-19T04:06:39.248Z,19.16
2023-01-19T04:09:28.039Z,19.56
2023-01-19T04:12:17.369Z,19.69
2023-01-19T04:15:00.129Z,20.05
2023-01-19T04:17:42.956Z,19.82
2023-01-19T04:20:32.146Z,20.02
2023-01-19T04:23:14.234Z,19.64
2023-01-19T04:26:03.985Z,19.74
2023-01-19T04:28:52.459Z,20.46
2023-01-19T04:31:35.131Z,20.42
2023-01-19T04:34:17.365Z,20.80
2023-01-19T04:37:06.078Z,20.88
2023-01-19T04:39:48.308Z,21.55
2023-01-19T04:42:36.956Z,21.74
2023-01-19T04:45:19.619Z,21.06
2023-01-19T04:48:09.152Z,21.28
2023-01-19T04:51:00.093Z,21.10
2023-01-19T04:53:49.104Z,21.93
2023-01-19T04:56:37.990Z,21.26
2023-01-19T04:59:21.484Z,21.10
2023-01-19T05:02:10.142Z,20.85
2023-01-19T05:04:58.927Z,21.18
2023-01-19T05:07:48.151Z,21.27
2023-01-19T05:10:30.333Z,21.26
2023-01-19T05:13:19.089Z,21.20
2023-01-19T05:16:01.412Z,21.01
2023-01-19T05:18:50.199Z,20.07
2023-01-19T05:21:32.634Z,20.23
2023-01-19T05:24:23.062Z,20.48
2023-01-19T05:27:05.530Z,20.81
2023-01-19T05:29:53.986Z,20.24
2023-01-19T05:32:43.100Z,20.32
2023-01-19T05:35:36.314Z,20.36
2023-01-19T05:38:23.370Z,20.46
2023-01-19T05:41:18.076Z,20.19
2023-01-19T05:44:00.418Z,20.13
2023-01-19T05:46:49.131Z,19.73
2023-01-19T05:49:31.571Z,20.39
2023-01-19T05:52:20.128Z,20.73
2023-01-19T05:55:15.516Z,20.67
2023-01-19T05:58:04.218Z,20.50
2023-01-19T06:00:46.351Z,20.71
2023-01-19T06:03:36.097Z,20.49
2023-01-19T06:06:18.462Z,20.52
2023-01-19T06:09:07.134Z,20.58
2023-01-19T06:11:49.752Z,21.21
2023-01-19T06:14:40.030Z,21.74
2023-01-19T06:17:22.363Z,21.57
2023-01-19T06:20:10.933Z,21.01
2023-01-19T06:22:53.426Z,21.11
2023-01-19T06:25:42.051Z,21.68
2023-01-19T06:28:24.724Z,21.32
2023-01-19T06:31:14.067Z,21.44
2023-01-19T06:33:56.394Z,21.09
2023-01-19T06:36:45.024Z,21.20
2023-01-19T06:39:28.434Z,20.85
2023-01-19T06:42:17.092Z,20.99
2023-01-19T06:44:59.421Z,20.84
2023-01-19T06:47:48.090Z,21.54
2023-01-19T06:50:30.369Z,20.92
2023-01-19T06:53:19.065Z,20.91
2023-01-19T06:56:08.971Z,21.27
2023-01-19T06:58:58.089Z,21.23
2023-01-19T07:01:47.108Z,21.37
2023-01-19T07:04:36.075Z,21.59
2023-01-19T07:07:18.353Z,21.35
2023-01-19T07:10:07.145Z,21.25
2023-01-19T07:12:49.450Z,21.24
2023-01-19T07:15:38.079Z,21.24
2023-01-19T07:18:27.177Z,21.23
2023-01-19T07:21:09.735Z,21.03
2023-01-19T07:24:02.164Z,20.96
2023-01-19T07:26:44.248Z,20.98
2023-01-19T07:29:33.106Z,21.26
2023-01-19T07:32:15.902Z,20.90
2023-01-19T07:35:05.054Z,20.88
2023-01-19T07:37:53.534Z,21.00
2023-01-19T07:40:36.074Z,21.02
2023-01-19T07:43:18.372Z,21.07
2023-01-19T07:46:07.174Z,20.82
2023-01-19T07:48:49.377Z,20.95
2023-01-19T07:51:37.977Z,21.20
2023-01-19T07:54:21.851Z,20.93
2023-01-19T07:57:11.002Z,20.90
2023-01-19T07:59:59.370Z,20.85
2023-01-19T08:02:49.036Z,20.68
2023-01-19T08:05:31.178Z,20.63
2023-01-19T08:08:20.079Z,20.70
2023-01-19T08:11:09.595Z,20.75
2023-01-19T08:13:52.004Z,20.41
2023-01-19T08:16:41.057Z,20.51
2023-01-19T08:19:30.046Z,20.56
2023-01-19T08:22:19.087Z,20.76
2023-01-19T08:25:08.104Z,20.90
2023-01-19T08:27:50.246Z,20.59
2023-01-19T08:30:39.111Z,20.60
2023-01-19T08:33:29.106Z,20.90
2023-01-19T08:36:11.320Z,20.81
2023-01-19T08:39:00.961Z,20.62
2023-01-19T08:41:49.939Z,20.65
2023-01-19T08:44:46.709Z,20.77
2023-01-19T08:47:39.194Z,20.69
2023-01-19T08:50:27.373Z,20.69
2023-01-19T08:53:12.094Z,20.65
2023-01-19T08:56:12.068Z,20.33
2023-01-19T08:59:08.223Z,20.37
2023-01-19T09:01:52.240Z,20.17
2023-01-19T09:04:42.097Z,20.18
2023-01-19T09:07:32.511Z,20.15
2023-01-19T09:10:18.353Z,19.89
2023-01-19T09:13:07.144Z,19.79
2023-01-19T09:15:50.355Z,19.73
2023-01-19T09:18:39.065Z,19.64
2023-01-19T09:21:28.041Z,19.70
2023-01-19T09:24:10.433Z,19.54
2023-01-19T09:26:59.071Z,19.62
2023-01-19T09:29:53.613Z,19.60
2023-01-19T09:32:35.108Z,19.58
2023-01-19T09:35:24.048Z,19.57
2023-01-19T09:38:06.302Z,19.69
2023-01-19T09:41:01.166Z,19.70
2023-01-19T09:43:54.388Z,19.70
2023-01-19T09:46:49.139Z,19.59
2023-01-19T09:49:41.444Z,19.36
2023-01-19T09:52:30.041Z,18.97
2023-01-19T09:55:30.331Z,19.01
2023-01-19T09:58:17.173Z,18.81
2023-01-19T10:01:20.529Z,18.68
2023-01-19T10:04:29.126Z,18.59
2023-01-19T10:07:38.328Z,18.54
2023-01-19T10:10:31.040Z,18.59
2023-01-19T10:13:40.965Z,18.51
2023-01-19T10:16:30.211Z,18.50
2023-01-19T10:19:33.772Z,18.44
2023-01-19T10:22:34.120Z,18.41
2023-01-19T10:25:28.448Z,18.34
2023-01-19T10:28:12.397Z,18.34
2023-01-19T10:30:57.146Z,18.20
2023-01-19T10:33:48.056Z,18.09
2023-01-19T10:36:35.333Z,18.11
2023-01-19T10:39:28.063Z,18.07
2023-01-19T10:42:16.584Z,18.02
2023-01-19T10:45:05.063Z,18.18
2023-01-19T10:47:55.443Z,18.05
2023-01-19T10:50:49.241Z,17.88
2023-01-19T10:53:44.979Z,17.83
2023-01-19T10:56:46.104Z,17.94
2023-01-19T10:59:42.321Z,17.89
2023-01-19T11:02:31.297Z,17.85
2023-01-19T11:05:30.980Z,17.82
2023-01-19T11:08:37.997Z,17.86
2023-01-19T11:11:28.469Z,17.70
2023-01-19T11:14:18.073Z,17.61
2023-01-19T11:17:07.340Z,17.62
2023-01-19T11:19:50.042Z,17.66
2023-01-19T11:22:41.022Z,17.63
2023-01-19T11:25:35.444Z,17.62
2023-01-19T11:28:44.183Z,17.51
2023-01-19T11:31:38.585Z,17.63
2023-01-19T11:34:35.062Z,17.60
2023-01-19T11:37:29.428Z,17.49
2023-01-19T11:40:19.036Z,17.43
2023-01-19T11:43:02.478Z,17.40
2023-01-19T11:45:54.666Z,17.27
2023-01-19T11:48:46.363Z,17.13
2023-01-19T11:51:39.088Z,17.23
2023-01-19T11:54:38.148Z,17.35
2023-01-19T11:57:28.054Z,17.27
2023-01-19T12:00:19.384Z,17.18
2023-01-19T12:03:19.144Z,17.10
2023-01-19T12:06:06.330Z,17.15
2023-01-19T12:09:06.049Z,17.03
2023-01-19T12:12:10.460Z,17.00
2023-01-19T12:15:03.709Z,17.02
2023-01-19T12:17:55.306Z,16.93
2023-01-19T12:20:51.981Z,16.91
2023-01-19T12:23:58.474Z,16.80
2023-01-19T12:26:56.040Z,17.01
2023-01-19T12:29:43.570Z,17.02
2023-01-19T12:32:44.007Z,16.90
2023-01-19T12:36:10.996Z,16.87
2023-01-19T12:39:09.286Z,16.89
2023-01-19T12:41:52.041Z,16.85
2023-01-19T12:44:41.981Z,16.90
2023-01-19T12:47:25.412Z,16.88
2023-01-19T12:50:22.078Z,16.81
2023-01-19T12:53:16.973Z,16.74
2023-01-19T12:56:23.029Z,16.67
2023-01-19T12:59:07.557Z,16.73
2023-01-19T13:01:56.151Z,16.76
2023-01-19T13:04:39.049Z,16.77
2023-01-19T13:07:28.034Z,16.75
2023-01-19T13:10:53.321Z,16.64
2023-01-19T13:13:45.984Z,16.61
2023-01-19T13:16:28.626Z,16.64
2023-01-19T13:19:32.029Z,16.57
2023-01-19T13:22:50.630Z,16.65
2023-01-19T13:25:50.023Z,16.60
2023-01-19T13:28:51.995Z,16.56
2023-01-19T13:31:41.912Z,16.59
2023-01-19T13:34:34.032Z,16.58
2023-01-19T13:37:28.402Z,16.57
2023-01-19T13:40:41.034Z,16.54
2023-01-19T13:43:32.306Z,16.57
2023-01-19T13:46:22.138Z,16.55
2023-01-19T13:49:31.060Z,16.46
2023-01-19T13:52:33.068Z,16.50
2023-01-19T13:55:29.946Z,16.47
2023-01-19T13:58:32.032Z,16.41
2023-01-19T14:01:14.431Z,16.34
2023-01-19T14:04:04.087Z,16.42
2023-01-19T14:06:56.649Z,16.39
2023-01-19T14:09:46.982Z,16.44
2023-01-19T14:12:40.171Z,16.37
2023-01-19T14:15:34.109Z,16.33
2023-01-19T14:18:17.333Z,16.33
2023-01-19T14:21:11.009Z,16.33
2023-01-19T14:24:08.052Z,16.24
2023-01-19T14:27:00.031Z,16.18
2023-01-19T14:29:52.063Z,16.21
2023-01-19T14:32:48.592Z,16.16
2023-01-19T14:35:40.161Z,16.18
2023-01-19T14:38:22.244Z,16.22
2023-01-19T14:41:11.018Z,16.03
2023-01-19T14:43:53.363Z,15.98
2023-01-19T14:46:42.986Z,16.01
2023-01-19T14:49:42.090Z,15.81
2023-01-19T14:52:40.077Z,15.65
2023-01-19T14:55:33.991Z,15.56
2023-01-19T14:58:28.127Z,15.50
2023-01-19T15:01:17.519Z,15.65
2023-01-19T15:03:59.976Z,15.72
2023-01-19T15:06:50.746Z,15.82
2023-01-19T15:09:34.014Z,15.78
2023-01-19T15:12:26.049Z,15.72
2023-01-19T15:15:15.976Z,15.73
2023-01-19T15:17:59.522Z,15.67
2023-01-19T15:20:51.333Z,15.59
2023-01-19T15:23:36.189Z,15.56
2023-01-19T15:26:30.109Z,15.35
2023-01-19T15:29:32.144Z,15.24
2023-01-19T15:32:19.037Z,15.39
2023-01-19T15:35:01.487Z,15.32
2023-01-19T15:37:50.037Z,15.28
2023-01-19T15:40:40.108Z,15.34
2023-01-19T15:43:29.006Z,15.39
2023-01-19T15:46:21.029Z,15.35
2023-01-19T15:49:03.408Z,15.29
2023-01-19T15:51:52.030Z,15.26
2023-01-19T15:55:07.221Z,15.25
2023-01-19T15:57:58.044Z,15.16
2023-01-19T16:00:42.622Z,15.22
2023-01-19T16:03:33.048Z,15.19
2023-01-19T16:06:17.470Z,15.16
2023-01-19T16:12:20.961Z,15.02
2023-01-19T16:15:10.260Z,14.94
2023-01-19T16:17:53.461Z,14.78
2023-01-19T16:20:41.962Z,14.92
2023-01-19T16:23:24.234Z,14.87
2023-01-19T16:26:17.958Z,14.79
2023-01-19T16:29:00.222Z,14.81
2023-01-19T16:31:51.093Z,14.95
2023-01-19T16:34:33.304Z,14.95
2023-01-19T16:37:22.009Z,14.89
2023-01-19T16:40:11.471Z,14.90
2023-01-19T16:42:54.416Z,14.77
2023-01-19T16:45:44.048Z,14.82
2023-01-19T16:48:27.132Z,14.41
2023-01-19T16:51:21.007Z,14.42
2023-01-19T16:54:03.286Z,14.57
2023-01-19T16:56:51.986Z,14.50
2023-01-19T16:59:48.579Z,14.62
2023-01-19T17:02:38.041Z,14.61
2023-01-19T17:05:26.280Z,14.74
2023-01-19T17:08:08.017Z,14.76
2023-01-19T17:10:57.467Z,14.68
2023-01-19T17:13:40.045Z,14.61
2023-01-19T17:16:22.948Z,14.68
2023-01-19T17:19:13.008Z,14.63
2023-01-19T17:22:03.977Z,14.63
2023-01-19T17:24:46.334Z,14.64
2023-01-19T17:27:34.975Z,14.69
2023-01-19T17:30:18.500Z,14.72
2023-01-19T17:33:07.018Z,14.73
2023-01-19T17:35:49.517Z,14.79
2023-01-19T17:38:37.993Z,14.74
2023-01-19T17:41:33.004Z,14.82
2023-01-19T17:44:15.437Z,14.87
2023-01-19T17:46:58.580Z,14.79
2023-01-19T17:49:49.083Z,14.93
2023-01-19T17:52:37.986Z,14.77
2023-01-19T17:55:28.154Z,14.67
2023-01-19T17:58:18.548Z,14.65
2023-01-19T18:01:01.542Z,14.73
2023-01-19T18:03:51.284Z,14.71
2023-01-19T18:06:40.051Z,14.71
2023-01-19T18:09:22.524Z,14.65
2023-01-19T18:12:11.031Z,14.60
2023-01-19T18:14:59.468Z,14.70
2023-01-19T18:17:42.297Z,14.71
2023-01-19T18:20:24.513Z,14.63
2023-01-19T18:23:12.949Z,14.59
2023-01-19T18:26:11.279Z,14.61
2023-01-19T18:29:01.089Z,14.66
2023-01-19T18:31:43.914Z,14.59
2023-01-19T18:34:33.565Z,14.62
2023-01-19T18:37:22.001Z,14.61
2023-01-19T18:40:05.612Z,14.45
2023-01-19T18:42:54.042Z,14.54
2023-01-19T18:45:38.011Z,14.61
2023-01-19T18:48:26.930Z,14.60
2023-01-19T18:51:14.457Z,14.55
2023-01-19T18:54:04.025Z,14.57
2023-01-19T18:56:58.987Z,14.70
2023-01-19T18:59:45.164Z,14.68
2023-01-19T19:02:34.028Z,14.75
2023-01-19T19:05:23.438Z,14.78
2023-01-19T19:08:04.957Z,14.84
2023-01-19T19:10:54.443Z,14.70
2023-01-19T19:13:37.114Z,14.66
2023-01-19T19:16:25.923Z,14.54
2023-01-19T19:19:09.465Z,14.61
2023-01-19T19:21:59.976Z,14.67
2023-01-19T19:24:48.919Z,14.58
2023-01-19T19:27:31.395Z,14.48
2023-01-19T19:30:20.987Z,14.26
2023-01-19T19:33:10.516Z,14.40
2023-01-19T19:35:51.960Z,14.52
2023-01-19T19:38:43.929Z,14.32
2023-01-19T19:41:29.987Z,14.22
2023-01-19T19:44:15.723Z,14.13
2023-01-19T19:47:05.029Z,14.09
2023-01-19T19:49:47.227Z,14.09
2023-01-19T19:52:35.934Z,14.00
2023-01-19T19:55:31.945Z,13.98
2023-01-19T19:58:20.939Z,13.91
2023-01-19T20:01:04.213Z,13.79
2023-01-19T20:03:52.953Z,13.78
2023-01-19T20:06:39.669Z,13.77
2023-01-19T20:09:28.815Z,13.78
2023-01-19T20:12:18.027Z,13.83
2023-01-19T20:15:06.898Z,13.79
2023-01-19T20:17:49.512Z,13.70
2023-01-19T20:20:37.967Z,13.67
2023-01-19T20:23:20.398Z,13.71
2023-01-19T20:26:12.946Z,13.65
2023-01-19T20:28:56.313Z,13.63
2023-01-19T20:31:50.032Z,13.55
2023-01-19T20:34:36.742Z,13.56
2023-01-19T20:37:25.981Z,13.65
2023-01-19T20:40:14.966Z,13.56
2023-01-19T20:42:57.332Z,13.56
2023-01-19T20:45:47.310Z,13.58
2023-01-19T20:48:29.539Z,13.56
2023-01-19T20:51:27.982Z,13.49
2023-01-19T20:54:21.323Z,13.46
2023-01-19T20:57:09.940Z,13.47
2023-01-19T20:59:52.278Z,13.59
2023-01-19T21:02:40.964Z,13.52
2023-01-19T21:05:23.298Z,13.52
2023-01-19T21:08:12.023Z,13.52
2023-01-19T21:10:54.204Z,13.55
2023-01-19T21:13:43.016Z,13.47
2023-01-19T21:16:25.276Z,13.42
2023-01-19T21:19:13.903Z,13.35
2023-01-19T21:21:56.296Z,13.41
2023-01-19T21:24:44.978Z,13.44
2023-01-19T21:27:27.331Z,13.36
2023-01-19T21:30:17.064Z,13.46
2023-01-19T21:33:05.953Z,13.42
2023-01-19T21:36:05.284Z,13.24
2023-01-19T21:38:47.954Z,13.41
2023-01-19T21:41:35.787Z,13.29
2023-01-19T21:44:26.990Z,13.16
2023-01-19T21:47:15.234Z,13.25
2023-01-19T21:49:57.009Z,13.21
2023-01-19T21:52:40.100Z,13.05
2023-01-19T21:55:28.963Z,12.93
2023-01-19T21:58:17.983Z,13.06
2023-01-19T22:01:09.847Z,13.05
2023-01-19T22:04:04.987Z,12.97
2023-01-19T22:06:47.434Z,12.94
2023-01-19T22:09:35.976Z,13.01
2023-01-19T22:12:18.290Z,13.01
2023-01-19T22:15:06.891Z,12.76
2023-01-19T22:17:56.183Z,12.87
2023-01-19T22:20:44.234Z,12.81
2023-01-19T22:23:26.080Z,12.73
2023-01-19T22:26:16.230Z,12.67
2023-01-19T22:29:04.959Z,12.79
2023-01-19T22:31:47.957Z,12.75
2023-01-19T22:34:36.983Z,12.83
2023-01-19T22:37:25.215Z,12.87
2023-01-19T22:40:08.101Z,12.81
2023-01-19T22:42:57.056Z,12.81
2023-01-19T22:45:39.203Z,12.67
2023-01-19T22:48:27.900Z,12.67
2023-01-19T22:51:11.302Z,12.73
2023-01-19T22:53:59.976Z,12.84
2023-01-19T22:56:49.242Z,12.73
2023-01-19T22:59:31.870Z,12.75
2023-01-19T23:02:14.208Z,12.70
2023-01-19T23:05:02.974Z,12.87
2023-01-19T23:07:45.379Z,12.76
2023-01-19T23:10:33.959Z,12.68
2023-01-19T23:13:16.105Z,12.49
2023-01-19T23:16:04.825Z,12.61
2023-01-19T23:18:55.266Z,12.65
2023-01-19T23:21:38.939Z,12.71
2023-01-19T23:24:21.223Z,12.81
2023-01-19T23:27:09.943Z,12.72
2023-01-19T23:29:52.110Z,12.73
2023-01-19T23:32:40.849Z,12.73
2023-01-19T23:35:23.135Z,12.55
2023-01-19T23:38:11.877Z,12.47
2023-01-19T23:40:54.059Z,12.33
2023-01-19T23:43:42.948Z,12.59
2023-01-19T23:46:25.597Z,12.50
2023-01-19T23:49:14.929Z,12.39
2023-01-19T23:52:03.948Z,12.37
2023-01-19T23:54:46.297Z,12.67
2023-01-19T23:57:34.859Z,12.50
